createdAt,value
2019-05-14T00:01:05.186Z,99678.47
2019-05-14T00:03:35.673Z,99678.47
2019-05-14T00:06:05.975Z,99676.18
2019-05-14T00:08:36.543Z,99688.39
2019-05-14T00:11:07.080Z,99687.92
2019-05-14T00:13:37.257Z,99686.69
2019-05-14T00:16:07.458Z,99685.59
2019-05-14T00:18:37.636Z,99680.44
2019-05-14T00:21:08.182Z,99680.64
2019-05-14T00:23:38.355Z,99677.60
2019-05-14T00:26:08.908Z,99679.00
2019-05-14T00:28:39.198Z,99675.41
2019-05-14T00:31:09.402Z,99674.09
2019-05-14T00:33:41.934Z,99676.45
2019-05-14T00:36:13.990Z,99674.48
2019-05-14T00:38:44.151Z,99674.48
2019-05-14T00:41:14.637Z,99672.36
2019-05-14T00:43:44.801Z,99677.16
2019-05-14T00:46:15.003Z,99666.66
2019-05-14T00:48:45.512Z,99665.42
2019-05-14T00:51:15.717Z,99668.54
2019-05-14T00:53:45.902Z,99664.94
2019-05-14T00:56:16.092Z,99667.75
2019-05-14T00:58:46.271Z,99658.06
2019-05-14T01:01:16.473Z,99671.36
2019-05-14T01:03:46.652Z,99666.81
2019-05-14T01:06:18.327Z,99668.24
2019-05-14T01:08:48.835Z,99672.77
2019-05-14T01:11:19.039Z,99671.20
2019-05-14T01:13:49.217Z,99668.82
2019-05-14T01:16:19.806Z,99664.52
2019-05-14T01:18:51.332Z,99664.23
2019-05-14T01:21:22.052Z,99662.03
2019-05-14T01:23:52.280Z,99662.92
2019-05-14T01:26:22.475Z,99667.29
2019-05-14T01:28:53.068Z,99661.91
2019-05-14T01:31:23.277Z,99660.55
2019-05-14T01:33:53.458Z,99656.58
2019-05-14T01:36:23.656Z,99660.72
2019-05-14T01:38:53.827Z,99664.48
2019-05-14T01:41:25.009Z,99653.95
2019-05-14T01:43:55.184Z,99653.95
2019-05-14T01:46:26.064Z,99645.02
2019-05-14T01:48:56.229Z,99646.19
2019-05-14T01:51:26.546Z,99651.66
2019-05-14T01:53:58.075Z,99650.97
2019-05-14T01:56:28.268Z,99650.74
2019-05-14T01:58:58.834Z,99651.27
2019-05-14T02:01:31.344Z,99638.19
2019-05-14T02:04:02.334Z,99636.90
2019-05-14T02:06:33.045Z,99641.11
2019-05-14T02:09:04.656Z,99634.24
2019-05-14T02:11:34.951Z,99640.39
2019-05-14T02:14:05.127Z,99642.78
2019-05-14T02:19:36.552Z,99631.23
2019-05-14T02:22:06.818Z,99635.78
2019-05-14T02:24:37.105Z,99634.19
2019-05-14T02:27:07.707Z,99643.62
2019-05-14T02:29:37.899Z,99642.14
2019-05-14T02:32:10.404Z,99639.11
2019-05-14T02:34:40.525Z,99644.44
2019-05-14T02:37:10.906Z,99647.16
2019-05-14T02:39:41.415Z,99635.56
2019-05-14T02:42:11.882Z,99643.89
2019-05-14T02:44:42.333Z,99650.14
2019-05-14T02:47:12.530Z,99645.78
2019-05-14T02:49:42.698Z,99640.02
2019-05-14T02:52:12.919Z,99630.59
2019-05-14T02:54:43.113Z,99629.21
2019-05-14T02:57:13.368Z,99627.55
2019-05-14T02:59:43.572Z,99627.55
2019-05-14T03:02:14.847Z,99624.11
2019-05-14T03:04:45.070Z,99625.02
2019-05-14T03:07:15.343Z,99624.71
2019-05-14T03:09:45.540Z,99623.39
2019-05-14T03:12:15.714Z,99625.77
2019-05-14T03:14:49.476Z,99625.43
2019-05-14T03:17:19.854Z,99624.48
2019-05-14T03:19:50.188Z,99622.81
2019-05-14T03:22:26.326Z,99630.57
2019-05-14T03:24:52.312Z,99623.61
2019-05-14T03:27:22.528Z,99628.91
2019-05-14T03:29:52.999Z,99628.91
2019-05-14T03:32:23.427Z,99631.31
2019-05-14T03:34:54.398Z,99632.22
2019-05-14T03:37:24.899Z,99634.20
2019-05-14T03:39:55.092Z,99623.67
2019-05-14T03:42:25.647Z,99626.74
2019-05-14T03:44:59.368Z,99631.16
2019-05-14T03:47:29.900Z,99627.27
2019-05-14T03:50:02.526Z,99625.66
2019-05-14T03:52:33.574Z,99626.14
2019-05-14T03:55:05.003Z,99624.17
2019-05-14T03:57:35.998Z,99619.94
2019-05-14T04:00:10.265Z,99620.67
2019-05-14T04:02:40.872Z,99621.02
2019-05-14T04:05:11.369Z,99621.36
2019-05-14T04:07:42.914Z,99608.12
2019-05-14T04:10:13.705Z,99610.67
2019-05-14T04:12:49.186Z,99615.84
2019-05-14T04:15:20.496Z,99617.84
2019-05-14T04:17:51.348Z,99620.23
2019-05-14T04:20:23.429Z,99621.63
2019-05-14T04:22:53.813Z,99613.22
2019-05-14T04:25:25.460Z,99616.02
2019-05-14T04:27:59.703Z,99624.17
2019-05-14T04:30:32.410Z,99622.25
2019-05-14T04:33:05.154Z,99632.98
2019-05-14T04:35:59.979Z,99626.06
2019-05-14T04:38:30.220Z,99628.63
2019-05-14T04:41:04.608Z,99632.38
2019-05-14T04:43:35.461Z,99633.96
2019-05-14T04:46:09.981Z,99634.55
2019-05-14T04:48:42.990Z,99632.91
2019-05-14T04:51:10.136Z,99638.15
2019-05-14T04:53:41.409Z,99637.41
2019-05-14T04:56:12.264Z,99639.02
2019-05-14T04:58:42.516Z,99633.58
2019-05-14T05:01:13.131Z,99643.80
2019-05-14T05:03:44.581Z,99637.36
2019-05-14T05:06:14.956Z,99634.90
2019-05-14T05:08:45.623Z,99629.88
2019-05-14T05:11:18.144Z,99630.53
2019-05-14T05:13:48.899Z,99635.17
2019-05-14T05:16:19.604Z,99618.91
2019-05-14T05:18:50.051Z,99617.63
2019-05-14T05:21:20.344Z,99621.73
2019-05-14T05:23:50.720Z,99627.16
2019-05-14T05:26:21.209Z,99619.05
2019-05-14T05:29:03.731Z,99624.59
2019-05-14T05:31:24.919Z,99628.59
2019-05-14T05:33:55.380Z,99615.95
2019-05-14T05:36:28.843Z,99624.69
2019-05-14T05:38:59.956Z,99624.64
2019-05-14T05:41:30.406Z,99623.90
2019-05-14T05:44:00.785Z,99630.17
2019-05-14T05:46:31.623Z,99624.64
2019-05-14T05:49:02.481Z,99625.61
2019-05-14T05:51:33.303Z,99627.16
2019-05-14T05:54:03.645Z,99624.98
2019-05-14T05:56:34.606Z,99615.39
2019-05-14T05:59:05.019Z,99616.41
2019-05-14T06:01:42.829Z,99607.20
2019-05-14T06:04:08.726Z,99612.83
2019-05-14T06:06:39.277Z,99615.49
2019-05-14T06:09:09.696Z,99612.20
2019-05-14T06:11:40.125Z,99613.45
2019-05-14T06:14:10.726Z,99611.39
2019-05-14T06:16:41.442Z,99613.88
2019-05-14T06:19:11.709Z,99602.97
2019-05-14T06:21:43.089Z,99606.30
2019-05-14T06:24:21.497Z,99606.02
2019-05-14T06:26:52.072Z,99600.09
2019-05-14T06:29:22.565Z,99607.89
2019-05-14T06:31:53.448Z,99608.55
2019-05-14T06:34:24.073Z,99608.55
2019-05-14T06:36:59.138Z,99613.02
2019-05-14T06:39:30.024Z,99611.42
2019-05-14T06:42:00.540Z,99612.72
2019-05-14T06:44:31.275Z,99613.63
2019-05-14T06:47:02.078Z,99607.70
2019-05-14T06:49:32.360Z,99607.70
2019-05-14T06:52:03.131Z,99602.94
2019-05-14T06:54:33.448Z,99595.02
2019-05-14T06:57:04.081Z,99605.81
2019-05-14T06:59:34.500Z,99613.45
2019-05-14T07:02:08.486Z,99599.62
2019-05-14T07:04:39.423Z,99597.33
2019-05-14T07:07:10.539Z,99598.86
2019-05-14T07:09:41.264Z,99596.34
2019-05-14T07:12:11.481Z,99596.73
2019-05-14T07:14:41.956Z,99585.45
2019-05-14T07:17:12.179Z,99582.63
2019-05-14T07:19:42.405Z,99587.06
2019-05-14T07:22:12.623Z,99589.02
2019-05-14T07:24:42.816Z,99578.86
2019-05-14T07:27:13.366Z,99579.97
2019-05-14T07:29:44.111Z,99576.45
2019-05-14T07:32:14.331Z,99568.55
2019-05-14T07:34:44.991Z,99568.01
2019-05-14T07:37:18.051Z,99564.56
2019-05-14T07:39:48.957Z,99570.38
2019-05-14T07:42:19.712Z,99559.65
2019-05-14T07:44:49.982Z,99557.23
2019-05-14T07:47:20.881Z,99558.00
2019-05-14T07:49:51.458Z,99549.75
2019-05-14T07:52:21.683Z,99547.22
2019-05-14T07:54:52.000Z,99550.43
2019-05-14T07:57:22.265Z,99549.50
2019-05-14T07:59:52.675Z,99546.72
2019-05-14T08:02:22.905Z,99538.17
2019-05-14T08:04:53.432Z,99523.91
2019-05-14T08:07:23.761Z,99527.20
2019-05-14T08:09:54.050Z,99525.78
2019-05-14T08:12:24.339Z,99521.65
2019-05-14T08:15:13.115Z,99522.38
2019-05-14T08:17:28.113Z,99521.77
2019-05-14T08:19:58.526Z,99518.25
2019-05-14T08:22:29.277Z,99516.64
2019-05-14T08:25:00.710Z,99504.17
2019-05-14T08:27:32.196Z,99502.94
2019-05-14T08:30:02.831Z,99492.28
2019-05-14T08:32:33.651Z,99496.68
2019-05-14T08:35:04.157Z,99497.27
2019-05-14T08:37:34.461Z,99484.39
2019-05-14T08:40:05.560Z,99485.22
2019-05-14T08:42:37.887Z,99496.55
2019-05-14T08:45:12.286Z,99499.17
2019-05-14T08:47:40.095Z,99494.98
2019-05-14T08:50:11.083Z,99488.91
2019-05-14T08:52:41.699Z,99486.45
2019-05-14T08:55:14.091Z,99482.64
2019-05-14T08:57:44.274Z,99488.17
2019-05-14T09:00:18.190Z,99483.64
2019-05-14T09:02:48.807Z,99479.36
2019-05-14T09:05:19.143Z,99484.28
2019-05-14T09:07:49.815Z,99482.00
2019-05-14T09:10:21.923Z,99476.66
2019-05-14T09:12:53.800Z,99468.55
2019-05-14T09:15:24.013Z,99475.86
2019-05-14T09:17:54.565Z,99473.13
2019-05-14T09:20:24.861Z,99467.89
2019-05-14T09:22:55.110Z,99469.95
2019-05-14T09:25:25.349Z,99468.31
2019-05-14T09:27:58.428Z,99458.17
2019-05-14T09:30:28.965Z,99458.17
2019-05-14T09:32:59.866Z,99463.63
2019-05-14T09:35:30.160Z,99460.58
2019-05-14T09:38:00.451Z,99454.52
2019-05-14T09:40:31.767Z,99450.13
2019-05-14T09:43:02.015Z,99452.52
2019-05-14T09:45:32.380Z,99453.02
2019-05-14T09:48:03.268Z,99453.66
2019-05-14T09:50:33.501Z,99447.42
2019-05-14T09:53:03.771Z,99449.85
2019-05-14T09:55:34.352Z,99444.14
2019-05-14T09:58:05.084Z,99444.52
2019-05-14T10:00:35.725Z,99447.48
2019-05-14T10:03:09.591Z,99438.02
2019-05-14T10:05:38.525Z,99433.04
2019-05-14T10:08:09.104Z,99432.22
2019-05-14T10:10:40.058Z,99423.73
2019-05-14T10:13:10.473Z,99429.65
2019-05-14T10:15:40.798Z,99424.56
2019-05-14T10:18:12.372Z,99425.12
2019-05-14T10:20:45.886Z,99431.92
2019-05-14T10:23:14.953Z,99436.17
2019-05-14T10:25:45.253Z,99440.23
2019-05-14T10:28:15.934Z,99423.84
2019-05-14T10:30:48.942Z,99428.77
2019-05-14T10:33:18.301Z,99415.56
2019-05-14T10:35:48.661Z,99429.13
2019-05-14T10:38:19.203Z,99417.61
2019-05-14T10:40:50.753Z,99424.68
2019-05-14T10:43:21.030Z,99417.56
2019-05-14T10:45:51.813Z,99410.14
2019-05-14T10:48:22.593Z,99406.35
2019-05-14T10:51:02.629Z,99400.50
2019-05-14T10:53:28.681Z,99408.98
2019-05-14T10:55:58.389Z,99408.73
2019-05-14T10:58:29.219Z,99404.20
2019-05-14T11:00:59.816Z,99412.91
2019-05-14T11:03:30.424Z,99389.06
2019-05-14T11:06:00.852Z,99386.78
2019-05-14T11:08:31.088Z,99390.05
2019-05-14T11:11:04.622Z,99390.19
2019-05-14T11:13:33.574Z,99386.20
2019-05-14T11:16:03.837Z,99383.33
2019-05-14T11:18:34.086Z,99386.23
2019-05-14T11:21:18.781Z,99380.34
2019-05-14T11:23:38.701Z,99371.89
2019-05-14T11:26:09.310Z,99382.03
2019-05-14T11:28:39.751Z,99382.67
2019-05-14T11:31:10.333Z,99379.17
2019-05-14T11:33:42.570Z,99373.02
2019-05-14T11:36:12.843Z,99365.07
2019-05-14T11:38:43.119Z,99365.72
2019-05-14T11:41:14.426Z,99358.88
2019-05-14T11:43:44.631Z,99356.33
2019-05-14T11:46:26.172Z,99352.03
2019-05-14T11:48:49.855Z,99356.06
2019-05-14T11:51:45.779Z,99352.92
2019-05-14T11:53:52.205Z,99350.90
2019-05-14T11:56:23.444Z,99349.61
2019-05-14T11:58:53.753Z,99348.11
2019-05-14T12:01:24.501Z,99338.41
2019-05-14T12:03:54.807Z,99338.22
2019-05-14T12:06:25.051Z,99344.53
2019-05-14T12:08:58.131Z,99340.66
2019-05-14T12:11:29.076Z,99337.27
2019-05-14T12:13:59.988Z,99346.98
2019-05-14T12:16:30.484Z,99341.36
2019-05-14T12:19:01.025Z,99337.53
2019-05-14T12:21:31.662Z,99327.94
2019-05-14T12:24:05.230Z,99320.59
2019-05-14T12:26:34.173Z,99327.95
2019-05-14T12:29:04.375Z,99312.69
2019-05-14T12:31:34.693Z,99318.98
2019-05-14T12:34:04.966Z,99318.77
2019-05-14T12:36:35.228Z,99302.08
2019-05-14T12:39:09.637Z,99306.50
2019-05-14T12:41:40.054Z,99306.00
2019-05-14T12:44:10.339Z,99306.17
2019-05-14T12:46:40.604Z,99307.51
2019-05-14T12:49:11.725Z,99301.52
2019-05-14T12:51:42.888Z,99303.73
2019-05-14T12:54:13.319Z,99311.81
2019-05-14T12:56:44.030Z,99290.17
2019-05-14T12:59:14.387Z,99295.47
2019-05-14T13:01:45.022Z,99298.07
2019-05-14T13:04:15.317Z,99290.08
2019-05-14T13:06:48.195Z,99296.80
2019-05-14T13:09:21.379Z,99292.78
2019-05-14T13:11:49.732Z,99290.30
2019-05-14T13:14:19.975Z,99300.80
2019-05-14T13:16:50.239Z,99293.00
2019-05-14T13:19:20.451Z,99294.73
2019-05-14T13:22:08.751Z,99292.03
2019-05-14T13:24:22.683Z,99285.63
2019-05-14T13:26:52.973Z,99262.83
2019-05-14T13:29:23.180Z,99281.05
2019-05-14T13:31:53.417Z,99282.11
2019-05-14T13:34:23.686Z,99274.54
2019-05-14T13:36:53.971Z,99263.05
2019-05-14T13:39:24.300Z,99279.10
2019-05-14T13:41:54.614Z,99279.41
2019-05-14T13:44:25.334Z,99267.75
2019-05-14T13:46:55.576Z,99274.91
2019-05-14T13:49:25.836Z,99258.81
2019-05-14T13:51:56.132Z,99260.92
2019-05-14T13:54:31.633Z,99267.47
2019-05-14T13:56:58.957Z,99268.97
2019-05-14T13:59:29.208Z,99255.14
2019-05-14T14:01:59.497Z,99255.82
2019-05-14T14:04:29.722Z,99245.33
2019-05-14T14:07:00.478Z,99244.48
2019-05-14T14:09:31.594Z,99245.09
2019-05-14T14:12:01.993Z,99243.97
2019-05-14T14:14:32.401Z,99248.37
2019-05-14T14:17:03.453Z,99233.13
2019-05-14T14:19:33.835Z,99240.86
2019-05-14T14:22:04.562Z,99241.89
2019-05-14T14:24:34.880Z,99239.95
2019-05-14T14:27:05.209Z,99232.09
2019-05-14T14:29:35.597Z,99233.11
2019-05-14T14:32:11.120Z,99233.91
2019-05-14T14:34:41.312Z,99231.54
2019-05-14T14:37:10.207Z,99221.34
2019-05-14T14:39:40.465Z,99222.14
2019-05-14T14:42:10.788Z,99227.33
2019-05-14T14:44:41.108Z,99213.94
2019-05-14T14:47:12.450Z,99215.94
2019-05-14T14:49:44.042Z,99214.77
2019-05-14T14:52:14.608Z,99206.73
2019-05-14T14:54:45.284Z,99209.83
2019-05-14T14:57:19.525Z,99211.13
2019-05-14T14:59:48.668Z,99210.67
2019-05-14T15:02:19.881Z,99216.56
2019-05-14T15:04:50.462Z,99213.59
2019-05-14T15:07:20.852Z,99207.89
2019-05-14T15:09:51.240Z,99200.90
2019-05-14T15:12:21.519Z,99196.46
2019-05-14T15:14:51.831Z,99193.82
2019-05-14T15:17:22.086Z,99209.75
2019-05-14T15:19:52.643Z,99196.31
2019-05-14T15:22:22.937Z,99208.13
2019-05-14T15:24:53.248Z,99198.94
2019-05-14T15:27:24.593Z,99199.64
2019-05-14T15:29:54.830Z,99198.25
2019-05-14T15:32:25.515Z,99201.34
2019-05-14T15:34:55.879Z,99204.22
2019-05-14T15:37:28.651Z,99206.49
2019-05-14T15:39:58.339Z,99198.37
2019-05-14T15:42:28.808Z,99193.29
2019-05-14T15:44:59.945Z,99195.78
2019-05-14T15:47:30.762Z,99197.22
2019-05-14T15:50:01.175Z,99190.31
2019-05-14T15:52:31.543Z,99193.80
2019-05-14T15:55:01.964Z,99191.11
2019-05-14T15:57:32.330Z,99184.73
2019-05-14T16:00:03.075Z,99194.61
2019-05-14T16:02:33.596Z,99191.70
2019-05-14T16:05:04.062Z,99188.53
2019-05-14T16:07:39.070Z,99195.06
2019-05-14T16:10:09.763Z,99188.62
2019-05-14T16:12:40.373Z,99191.59
2019-05-14T16:15:11.197Z,99190.03
2019-05-14T16:17:50.692Z,99173.41
2019-05-14T16:20:14.045Z,99172.64
2019-05-14T16:22:44.449Z,99178.73
2019-05-14T16:25:15.070Z,99182.71
2019-05-14T16:27:45.326Z,99185.69
2019-05-14T16:30:15.981Z,99181.18
2019-05-14T16:32:48.491Z,99174.97
2019-05-14T16:35:21.318Z,99171.83
2019-05-14T16:37:50.819Z,99174.65
2019-05-14T16:40:21.081Z,99174.65
2019-05-14T16:42:51.333Z,99184.61
2019-05-14T16:45:21.646Z,99180.11
2019-05-14T16:47:52.135Z,99180.16
2019-05-14T16:50:22.469Z,99167.77
2019-05-14T16:52:53.055Z,99171.98
2019-05-14T16:55:27.237Z,99184.62
2019-05-14T16:57:55.428Z,99183.84
2019-05-14T17:00:25.843Z,99177.70
2019-05-14T17:02:56.130Z,99177.70
2019-05-14T17:05:29.939Z,99174.02
2019-05-14T17:07:58.998Z,99171.22
2019-05-14T17:10:29.265Z,99177.06
2019-05-14T17:13:01.826Z,99175.27
2019-05-14T17:15:33.274Z,99178.88
2019-05-14T17:18:04.526Z,99174.55
2019-05-14T17:20:34.966Z,99181.02
2019-05-14T17:23:05.892Z,99176.30
2019-05-14T17:25:36.104Z,99178.29
2019-05-14T17:28:08.515Z,99179.20
2019-05-14T17:30:38.918Z,99174.70
2019-05-14T17:33:09.737Z,99170.56
2019-05-14T17:35:40.319Z,99176.05
2019-05-14T17:38:10.716Z,99178.02
2019-05-14T17:40:41.061Z,99182.38
2019-05-14T17:43:11.876Z,99181.30
2019-05-14T17:45:42.311Z,99182.94
2019-05-14T17:48:13.727Z,99165.11
2019-05-14T17:50:44.855Z,99165.11
2019-05-14T17:53:15.189Z,99171.58
2019-05-14T17:55:50.061Z,99178.76
2019-05-14T17:58:18.914Z,99180.44
2019-05-14T18:00:49.563Z,99170.19
2019-05-14T18:03:19.788Z,99175.30
2019-05-14T18:05:50.396Z,99178.05
2019-05-14T18:08:20.729Z,99178.13
2019-05-14T18:10:51.360Z,99178.95
2019-05-14T18:13:21.926Z,99176.16
2019-05-14T18:15:52.532Z,99176.19
2019-05-14T18:18:22.712Z,99172.86
2019-05-14T18:20:53.000Z,99170.66
2019-05-14T18:23:24.390Z,99171.70
2019-05-14T18:26:04.999Z,99168.63
2019-05-14T18:28:28.661Z,99167.83
2019-05-14T18:30:58.940Z,99176.72
2019-05-14T18:33:31.134Z,99174.07
2019-05-14T18:36:01.208Z,99181.83
2019-05-14T18:38:31.514Z,99176.84
2019-05-14T18:41:01.855Z,99183.13
2019-05-14T18:43:32.102Z,99183.33
2019-05-14T18:46:02.406Z,99183.36
2019-05-14T18:48:32.705Z,99178.36
2019-05-14T18:51:03.236Z,99175.44
2019-05-14T18:53:34.449Z,99178.55
2019-05-14T18:56:17.418Z,99180.89
2019-05-14T18:58:38.706Z,99179.94
2019-05-14T19:01:08.808Z,99179.46
2019-05-14T19:03:39.907Z,99179.12
2019-05-14T19:06:10.286Z,99181.43
2019-05-14T19:08:40.635Z,99179.46
2019-05-14T19:11:10.974Z,99176.29
2019-05-14T19:13:41.272Z,99183.73
2019-05-14T19:16:11.499Z,99184.75
2019-05-14T19:18:41.856Z,99185.84
2019-05-14T19:21:12.335Z,99187.42
2019-05-14T19:23:45.228Z,99187.17
2019-05-14T19:26:14.787Z,99189.61
2019-05-14T19:28:45.150Z,99185.93
2019-05-14T19:31:15.341Z,99192.88
2019-05-14T19:33:45.626Z,99193.98
2019-05-14T19:36:16.116Z,99192.53
2019-05-14T19:38:48.175Z,99198.33
2019-05-14T19:41:20.977Z,99192.94
2019-05-14T19:43:50.302Z,99187.94
2019-05-14T19:46:20.596Z,99187.34
2019-05-14T19:48:50.853Z,99195.34
2019-05-14T19:51:21.142Z,99193.70
2019-05-14T19:53:52.596Z,99192.25
2019-05-14T19:56:23.043Z,99196.94
2019-05-14T19:58:53.805Z,99200.02
2019-05-14T20:01:24.044Z,99200.13
2019-05-14T20:03:54.663Z,99203.31
2019-05-14T20:06:24.917Z,99202.80
2019-05-14T20:08:55.302Z,99206.90
2019-05-14T20:11:25.961Z,99212.20
2019-05-14T20:13:59.028Z,99207.00
2019-05-14T20:16:29.282Z,99207.93
2019-05-14T20:18:59.590Z,99211.53
2019-05-14T20:21:31.363Z,99206.13
2019-05-14T20:24:01.951Z,99200.71
2019-05-14T20:26:32.666Z,99201.36
2019-05-14T20:29:03.533Z,99203.80
2019-05-14T20:31:33.901Z,99198.69
2019-05-14T20:34:08.329Z,99201.26
2019-05-14T20:36:39.140Z,99198.46
2019-05-14T20:39:10.570Z,99202.70
2019-05-14T20:41:41.062Z,99208.93
2019-05-14T20:44:11.386Z,99206.48
2019-05-14T20:46:41.714Z,99205.60
2019-05-14T20:49:12.065Z,99203.06
2019-05-14T20:51:42.838Z,99204.27
2019-05-14T20:54:13.157Z,99208.30
2019-05-14T20:56:43.604Z,99204.69
2019-05-14T20:59:13.919Z,99200.15
2019-05-14T21:01:44.158Z,99197.56
2019-05-14T21:04:14.444Z,99199.27
2019-05-14T21:06:44.674Z,99199.72
2019-05-14T21:09:15.056Z,99195.14
2019-05-14T21:11:45.335Z,99194.42
2019-05-14T21:14:15.644Z,99197.81
2019-05-14T21:16:48.667Z,99196.81
2019-05-14T21:19:19.250Z,99195.30
2019-05-14T21:21:49.623Z,99193.92
2019-05-14T21:24:21.873Z,99199.17
2019-05-14T21:26:51.924Z,99205.63
2019-05-14T21:29:23.909Z,99202.95
2019-05-14T21:31:54.467Z,99208.78
2019-05-14T21:34:24.804Z,99196.72
2019-05-14T21:36:55.475Z,99207.02
2019-05-14T21:39:25.774Z,99206.26
2019-05-14T21:41:58.450Z,99201.09
2019-05-14T21:44:28.490Z,99201.80
2019-05-14T21:46:59.001Z,99202.80
2019-05-14T21:49:30.016Z,99198.09
2019-05-14T21:52:00.319Z,99193.29
2019-05-14T21:54:31.144Z,99195.73
2019-05-14T21:57:01.438Z,99200.06
2019-05-14T21:59:31.749Z,99190.57
2019-05-14T22:02:02.753Z,99190.40
2019-05-14T22:04:33.243Z,99187.37
2019-05-14T22:07:03.926Z,99182.65
2019-05-14T22:09:34.515Z,99187.14
2019-05-14T22:12:04.887Z,99192.00
2019-05-14T22:14:37.946Z,99185.15
2019-05-14T22:17:09.509Z,99187.14
2019-05-14T22:19:39.817Z,99175.59
2019-05-14T22:22:10.701Z,99178.81
2019-05-14T22:24:41.461Z,99174.19
2019-05-14T22:27:14.882Z,99175.16
2019-05-14T22:29:45.182Z,99175.92
2019-05-14T22:32:15.577Z,99171.99
2019-05-14T22:34:48.650Z,99162.90
2019-05-14T22:37:20.195Z,99166.36
2019-05-14T22:39:50.884Z,99166.51
2019-05-14T22:42:28.241Z,99165.63
2019-05-14T22:44:58.723Z,99158.27
2019-05-14T22:47:29.018Z,99166.36
2019-05-14T22:49:59.704Z,99157.84
2019-05-14T22:52:31.263Z,99157.59
2019-05-14T22:55:03.633Z,99162.64
2019-05-14T22:57:34.488Z,99160.19
2019-05-14T23:00:05.139Z,99165.55
2019-05-14T23:02:38.178Z,99165.65
2019-05-14T23:05:08.840Z,99165.34
2019-05-14T23:07:39.269Z,99165.89
2019-05-14T23:10:10.337Z,99167.78
2019-05-14T23:12:40.584Z,99162.06
2019-05-14T23:15:10.964Z,99158.36
2019-05-14T23:17:41.272Z,99165.51
2019-05-14T23:20:11.930Z,99165.95
2019-05-14T23:22:42.322Z,99162.44
2019-05-14T23:25:12.974Z,99159.66
2019-05-14T23:27:43.356Z,99162.37
2019-05-14T23:30:13.838Z,99167.37
2019-05-14T23:32:44.879Z,99159.84
2019-05-14T23:35:15.651Z,99161.52
2019-05-14T23:37:48.934Z,99163.84
2019-05-14T23:40:19.367Z,99158.88
2019-05-14T23:42:49.863Z,99158.59
2019-05-14T23:45:21.622Z,99164.98
2019-05-14T23:47:52.232Z,99162.53
2019-05-14T23:50:22.991Z,99161.97
2019-05-14T23:52:53.498Z,99172.06
2019-05-14T23:55:24.265Z,99169.01
2019-05-14T23:57:55.999Z,99162.55
